Main page
METAR-TAF:

METAR-TAF

Airports :

Monticello Regional Airport

Monticello, Iowa, United States

latitude: 42-14N, longitude: 091-10W, elevation: 850 ft

Current weather observation

The report was made 23 minutes ago, at 16:15 UTC
Wind 13 mph from the North/Northwest
Temperature 37°F
Humidity 75%
Pressure 30.21 in. Hg
Visibility: 10 miles
Few clouds at a height of 1700 ft

METAR: KMXO 041615Z AUTO 34011KT 10SM FEW017 03/M01 A3021 RMK AO2

Time: 11:38 (16:38 UTC)


TAF: missing

Weather observations and forecasts of more than 4000 airports (METAR and TAF reports).

The available stations are represented by yellow and red dots on the map.

Hover mouse over dot to see the name of the station.

Then click to see weather observations and forecasts.

To change the map : click on the green buttons with a black cross to zoom in, on the green button with a dash to zoom out, or on the green arrows for adjacent maps.


METAR-TAF: